Time;durP1;ratioP1;P1;durP2;ratioP2;P2;SDS_P1;SDS_P2;PMS_P1;PMS_P2;Temp;Humidity;BMP_temperature;BMP_pressure;BME280_temperature;BME280_humidity;BME280_pressure;Samples;Min_cycle;Max_cycle;Signal;HPM_P1;HPM_P2
2023/01/20 00:00:00;;;;;;;1999.90;999.90;;;1.10;99.90;;;;;;5036852;28;20444;-66
2023/01/20 00:02:26;;;;;;;1999.90;999.90;;;1.10;99.90;;;;;;5034670;28;20480;-65
2023/01/20 00:04:54;;;;;;;1999.90;999.90;;;1.10;99.90;;;;;;5052116;28;20470;-66
2023/01/20 00:07:21;;;;;;;1999.90;999.90;;;1.10;99.90;;;;;;5043261;28;20456;-67
2023/01/20 00:09:48;;;;;;;1999.90;999.90;;;1.00;99.90;;;;;;5041837;28;20453;-66
2023/01/20 00:12:15;;;;;;;1999.90;999.90;;;1.00;99.90;;;;;;5054303;28;20440;-66
2023/01/20 00:14:41;;;;;;;1999.90;999.90;;;1.00;99.90;;;;;;5045934;28;21009;-66
2023/01/20 00:17:08;;;;;;;1999.90;999.90;;;1.00;99.90;;;;;;5035424;28;20445;-65
2023/01/20 00:19:35;;;;;;;1999.90;999.90;;;0.90;99.90;;;;;;5034800;28;20457;-65
2023/01/20 00:22:03;;;;;;;1999.90;999.90;;;1.00;99.90;;;;;;5044218;28;20483;-65
2023/01/20 00:24:30;;;;;;;1999.90;999.90;;;1.00;99.90;;;;;;5046358;28;20472;-66
2023/01/20 00:26:56;;;;;;;1999.90;999.90;;;1.00;99.90;;;;;;5034251;28;20444;-66
2023/01/20 00:29:23;;;;;;;1999.90;999.90;;;1.10;99.90;;;;;;5040278;28;20443;-65
2023/01/20 00:31:50;;;;;;;1999.90;999.90;;;1.20;99.90;;;;;;5053933;28;20452;-66
2023/01/20 00:34:16;;;;;;;1999.90;999.90;;;1.20;99.90;;;;;;5052569;28;21027;-65
2023/01/20 00:36:43;;;;;;;1999.90;999.90;;;1.20;99.90;;;;;;5036049;28;20460;-65
2023/01/20 00:39:11;;;;;;;1999.90;999.90;;;1.20;99.90;;;;;;5046301;28;20460;-66
2023/01/20 00:41:38;;;;;;;1999.90;999.90;;;1.20;99.90;;;;;;5033952;28;20451;-64
2023/01/20 00:44:05;;;;;;;1999.90;999.90;;;1.30;99.90;;;;;;5042334;28;20494;-66
2023/01/20 00:46:32;;;;;;;1999.90;999.90;;;1.30;99.90;;;;;;5054527;28;20456;-66
2023/01/20 00:48:59;;;;;;;1999.90;999.90;;;1.40;99.90;;;;;;5055153;28;20450;-67
2023/01/20 00:51:25;;;;;;;1999.90;999.90;;;1.50;99.90;;;;;;5046313;28;20452;-66
2023/01/20 00:53:52;;;;;;;1999.90;999.90;;;1.40;99.90;;;;;;5037642;28;20838;-66
2023/01/20 00:56:20;;;;;;;1999.90;999.90;;;1.40;99.90;;;;;;5045434;28;21029;-66
2023/01/20 00:58:47;;;;;;;1999.90;999.90;;;1.40;99.90;;;;;;5043701;28;20959;-66
2023/01/20 01:01:14;;;;;;;1999.90;999.90;;;1.30;99.90;;;;;;5046925;28;20443;-66
2023/01/20 01:03:41;;;;;;;1999.90;999.90;;;1.20;99.90;;;;;;5052846;28;20495;-65
2023/01/20 01:06:10;;;;;;;1999.90;999.90;;;1.20;99.90;;;;;;5046751;28;20460;-66
2023/01/20 01:08:37;;;;;;;1999.90;999.90;;;1.20;99.90;;;;;;5044801;28;20445;-66
2023/01/20 01:11:05;;;;;;;1999.90;999.90;;;1.10;99.90;;;;;;5046700;28;20455;-66
2023/01/20 01:13:33;;;;;;;1999.90;999.90;;;1.10;99.90;;;;;;5056359;28;20467;-66
2023/01/20 01:16:00;;;;;;;1999.90;999.90;;;1.20;99.90;;;;;;5036584;28;20453;-66
2023/01/20 01:18:27;;;;;;;1999.90;999.90;;;1.20;99.90;;;;;;5037307;28;20483;-65
2023/01/20 01:20:54;;;;;;;1999.90;999.90;;;1.30;99.90;;;;;;5035755;28;20440;-66
2023/01/20 01:23:20;;;;;;;1999.90;999.90;;;1.30;99.90;;;;;;5035633;28;20492;-66
2023/01/20 01:25:47;;;;;;;1999.90;999.90;;;1.30;99.90;;;;;;5036638;28;20949;-66
2023/01/20 01:28:14;;;;;;;1999.90;999.90;;;1.30;99.90;;;;;;5055363;28;20960;-66
2023/01/20 01:30:42;;;;;;;1999.90;999.90;;;1.20;99.90;;;;;;5056181;28;20452;-67
2023/01/20 01:33:09;;;;;;;1999.90;999.90;;;1.30;99.90;;;;;;5049285;28;20570;-66
2023/01/20 01:35:35;;;;;;;1999.90;999.90;;;1.20;99.90;;;;;;5050782;28;20952;-65
2023/01/20 01:38:02;;;;;;;1999.90;999.90;;;1.30;99.90;;;;;;5036358;28;20448;-65
2023/01/20 01:40:29;;;;;;;1999.90;999.90;;;1.30;99.90;;;;;;5044160;28;20448;-66
2023/01/20 01:42:56;;;;;;;1999.90;999.90;;;1.40;99.90;;;;;;5043289;28;20479;-65
2023/01/20 01:45:27;;;;;;;1999.90;999.90;;;1.40;99.90;;;;;;5057444;28;20454;-66
2023/01/20 01:48:07;;;;;;;1999.90;999.90;;;1.50;99.90;;;;;;5050724;28;20866;-66
2023/01/20 01:50:39;;;;;;;1999.90;999.90;;;1.50;99.90;;;;;;5038866;28;20444;-67
2023/01/20 01:53:08;;;;;;;1999.90;999.90;;;1.50;99.90;;;;;;5036818;28;20461;-65
2023/01/20 01:55:37;;;;;;;1999.90;999.90;;;1.50;99.90;;;;;;5038515;28;20444;-67
2023/01/20 01:58:06;;;;;;;1999.90;999.90;;;1.50;99.90;;;;;;5039321;28;20820;-67
2023/01/20 02:00:33;;;;;;;1999.90;999.90;;;1.50;99.90;;;;;;5049174;28;20461;-66
2023/01/20 02:03:00;;;;;;;1999.90;999.90;;;1.50;99.90;;;;;;5053854;28;20482;-66
2023/01/20 02:05:30;;;;;;;1999.90;999.90;;;1.50;99.90;;;;;;5046717;28;20443;-66
2023/01/20 02:07:58;;;;;;;1999.90;999.90;;;1.50;99.90;;;;;;5049388;28;20455;-66
2023/01/20 02:10:25;;;;;;;1999.90;999.90;;;1.40;99.90;;;;;;5057233;28;20440;-67
2023/01/20 02:12:52;;;;;;;1999.90;999.90;;;1.40;99.90;;;;;;5038404;28;20460;-65
2023/01/20 02:15:25;;;;;;;1999.90;999.90;;;1.40;99.90;;;;;;5046287;28;20444;-66
2023/01/20 02:18:08;;;;;;;1999.90;999.90;;;1.40;99.90;;;;;;5041445;28;20559;-65
2023/01/20 02:20:53;;;;;;;1999.90;999.90;;;1.50;99.90;;;;;;5038134;28;20950;-65
2023/01/20 02:23:39;;;;;;;1999.90;999.90;;;1.40;99.90;;;;;;5038563;28;20499;-66
2023/01/20 02:26:23;;;;;;;1999.90;999.90;;;1.50;99.90;;;;;;5044358;28;20445;-66
2023/01/20 02:29:28;;;;;;;1999.90;999.90;;;1.50;99.90;;;;;;5037193;28;20449;-66
2023/01/20 02:32:16;;;;;;;1999.90;999.90;;;1.40;99.90;;;;;;5056954;28;21183;-64
2023/01/20 02:34:48;;;;;;;1999.90;999.90;;;1.40;99.90;;;;;;5056661;28;20474;-66
2023/01/20 02:37:19;;;;;;;1999.90;999.90;;;1.40;99.90;;;;;;5057025;28;20462;-65
2023/01/20 02:39:56;;;;;;;1999.90;999.90;;;1.40;99.90;;;;;;5056654;28;20451;-65
2023/01/20 02:42:27;;;;;;;1999.90;999.90;;;1.40;99.90;;;;;;5044392;28;20445;-64
2023/01/20 02:44:58;;;;;;;1999.90;999.90;;;1.30;99.90;;;;;;5039195;28;20457;-66
2023/01/20 02:47:32;;;;;;;1999.90;999.90;;;1.40;99.90;;;;;;5050319;28;20448;-66
2023/01/20 02:50:06;;;;;;;1999.90;999.90;;;1.40;99.90;;;;;;5047105;28;20455;-65
2023/01/20 02:52:38;;;;;;;1999.90;999.90;;;1.50;99.90;;;;;;5057173;28;20448;-65
2023/01/20 02:55:08;;;;;;;1999.90;999.90;;;1.50;99.90;;;;;;5047684;28;20465;-67
2023/01/20 02:57:40;;;;;;;1999.90;999.90;;;1.40;99.90;;;;;;5049391;28;20456;-67
2023/01/20 03:00:12;;;;;;;1999.90;999.90;;;1.50;99.90;;;;;;5035399;28;20505;-67
2023/01/20 03:02:42;;;;;;;1999.90;999.90;;;1.50;99.90;;;;;;5039277;28;20456;-68
2023/01/20 03:05:12;;;;;;;1999.90;999.90;;;1.50;99.90;;;;;;5039611;28;20966;-67
2023/01/20 03:07:41;;;;;;;1999.90;999.90;;;1.60;99.90;;;;;;5032447;28;20441;-67
2023/01/20 03:10:12;;;;;;;1999.90;999.90;;;1.60;99.90;;;;;;5042527;28;20456;-66
2023/01/20 03:12:45;;;;;;;1999.90;999.90;;;1.50;99.90;;;;;;5037578;28;20459;-67
2023/01/20 03:15:12;;;;;;;1999.90;999.90;;;1.50;99.90;;;;;;5046007;28;20822;-67
2023/01/20 03:17:41;;;;;;;1999.90;999.90;;;1.50;99.90;;;;;;5039130;28;20456;-67
2023/01/20 03:20:09;;;;;;;1999.90;999.90;;;1.50;99.90;;;;;;5040941;28;20938;-67
2023/01/20 03:22:36;;;;;;;1999.90;999.90;;;1.50;99.90;;;;;;5032044;28;20465;-67
2023/01/20 03:25:04;;;;;;;1999.90;999.90;;;1.50;99.90;;;;;;5036059;28;21002;-66
2023/01/20 03:27:31;;;;;;;1999.90;999.90;;;1.50;99.90;;;;;;5038975;28;20453;-67
2023/01/20 03:29:57;;;;;;;1999.90;999.90;;;1.50;99.90;;;;;;5051874;28;20458;-67
2023/01/20 03:32:25;;;;;;;1999.90;999.90;;;1.50;99.90;;;;;;5043630;28;20813;-66
2023/01/20 03:34:55;;;;;;;1999.90;999.90;;;1.40;99.90;;;;;;5039595;28;20899;-67
2023/01/20 03:37:22;;;;;;;1999.90;999.90;;;1.50;99.90;;;;;;5039596;28;20463;-67
2023/01/20 03:39:49;;;;;;;1999.90;999.90;;;1.40;99.90;;;;;;5045824;28;20444;-66
2023/01/20 03:42:24;;;;;;;1999.90;999.90;;;1.50;99.90;;;;;;5038988;28;20455;-67
2023/01/20 03:45:00;;;;;;;1999.90;999.90;;;1.50;99.90;;;;;;5052713;28;20491;-67
2023/01/20 03:47:50;;;;;;;1999.90;999.90;;;1.50;99.90;;;;;;5041085;28;20456;-67
2023/01/20 03:50:29;;;;;;;1999.90;999.90;;;1.50;99.90;;;;;;5034610;28;20814;-66
2023/01/20 03:53:04;;;;;;;1999.90;999.90;;;1.50;99.90;;;;;;5033125;28;20456;-66
2023/01/20 03:55:36;;;;;;;1999.90;999.90;;;1.40;99.90;;;;;;5032267;28;20459;-67
2023/01/20 03:58:07;;;;;;;1999.90;999.90;;;1.40;99.90;;;;;;5031059;28;20449;-67
2023/01/20 04:00:37;;;;;;;1999.90;999.90;;;1.40;99.90;;;;;;5051630;28;20953;-66
2023/01/20 04:03:07;;;;;;;1999.90;999.90;;;1.30;99.90;;;;;;5051007;28;20863;-67
2023/01/20 04:05:37;;;;;;;1999.90;999.90;;;1.30;99.90;;;;;;5051508;28;20475;-67
2023/01/20 04:08:07;;;;;;;1999.90;999.90;;;1.30;99.90;;;;;;5050900;28;20459;-67
2023/01/20 04:10:37;;;;;;;1999.90;999.90;;;1.30;99.90;;;;;;5043116;28;20472;-66
2023/01/20 04:13:04;;;;;;;1999.90;999.90;;;1.30;99.90;;;;;;5043143;28;20468;-68
2023/01/20 04:15:34;;;;;;;1999.90;999.90;;;1.30;99.90;;;;;;5030590;28;20441;-65
2023/01/20 04:18:11;;;;;;;1999.90;999.90;;;1.10;99.90;;;;;;5032995;28;20449;-67
2023/01/20 04:20:40;;;;;;;1999.90;999.90;;;1.10;99.90;;;;;;5039025;28;20448;-67
2023/01/20 04:23:12;;;;;;;1999.90;999.90;;;0.80;99.90;;;;;;5038623;28;20803;-66
2023/01/20 04:25:39;;;;;;;1999.90;999.90;;;0.80;99.90;;;;;;5033859;28;20527;-65
2023/01/20 04:28:05;;;;;;;1999.90;999.90;;;0.80;99.90;;;;;;5042028;28;20451;-67
2023/01/20 04:30:32;;;;;;;1999.90;999.90;;;0.80;99.90;;;;;;5039050;28;20452;-66
2023/01/20 04:32:59;;;;;;;1999.90;999.90;;;0.70;99.90;;;;;;5047767;28;20988;-66
2023/01/20 04:35:26;;;;;;;1999.90;999.90;;;0.70;99.90;;;;;;5040637;28;20452;-67
2023/01/20 04:37:54;;;;;;;1999.90;999.90;;;0.80;99.90;;;;;;5039293;28;20440;-64
2023/01/20 04:40:21;;;;;;;1999.90;999.90;;;0.80;99.90;;;;;;5051209;28;20451;-66
2023/01/20 04:42:47;;;;;;;1999.90;999.90;;;0.80;99.90;;;;;;5035872;28;20451;-66
2023/01/20 04:45:15;;;;;;;1999.90;999.90;;;0.90;99.90;;;;;;5030689;28;20491;-66
2023/01/20 04:47:42;;;;;;;1999.90;999.90;;;0.90;99.90;;;;;;5030465;28;20868;-65
2023/01/20 04:50:10;;;;;;;1999.90;999.90;;;1.00;99.90;;;;;;5030665;28;20448;-67
2023/01/20 04:52:37;;;;;;;1999.90;999.90;;;1.10;99.90;;;;;;5030944;28;20452;-67
2023/01/20 04:55:06;;;;;;;1999.90;999.90;;;1.20;99.90;;;;;;5045155;28;20839;-67
2023/01/20 04:57:33;;;;;;;1999.90;999.90;;;1.10;99.90;;;;;;5051292;28;20444;-67
2023/01/20 04:59:59;;;;;;;1999.90;999.90;;;1.10;99.90;;;;;;5050549;28;20443;-67
2023/01/20 05:02:26;;;;;;;1999.90;999.90;;;1.10;99.90;;;;;;5051089;28;20452;-66
2023/01/20 05:04:53;;;;;;;1999.90;999.90;;;1.00;99.90;;;;;;5050707;28;20479;-66
2023/01/20 05:07:19;;;;;;;1999.90;999.90;;;1.10;99.90;;;;;;5054490;28;20436;-67
2023/01/20 05:09:46;;;;;;;1999.90;999.90;;;1.00;99.90;;;;;;5041378;28;20462;-68
2023/01/20 05:12:14;;;;;;;1999.90;999.90;;;0.90;99.90;;;;;;5051114;28;20459;-67
2023/01/20 05:14:41;;;;;;;1999.90;999.90;;;0.90;99.90;;;;;;5053348;28;20929;-68
2023/01/20 05:17:08;;;;;;;1999.90;999.90;;;0.80;99.90;;;;;;5053258;28;20458;-67
2023/01/20 05:19:35;;;;;;;1999.90;999.90;;;0.80;99.90;;;;;;5054120;28;20450;-68
2023/01/20 05:22:01;;;;;;;1999.90;999.90;;;0.80;99.90;;;;;;5037800;28;20457;-66
2023/01/20 05:24:29;;;;;;;1999.90;999.90;;;0.80;99.90;;;;;;5034771;28;20496;-67
2023/01/20 05:26:59;;;;;;;1999.90;999.90;;;0.80;99.90;;;;;;5034818;28;20769;-68
2023/01/20 05:29:27;;;;;;;1999.90;999.90;;;0.90;99.90;;;;;;5035306;28;20452;-67
2023/01/20 05:31:54;;;;;;;1999.90;999.90;;;1.00;99.90;;;;;;5049439;28;20455;-67
2023/01/20 05:34:21;;;;;;;1999.90;999.90;;;1.10;99.90;;;;;;5052984;28;20843;-66
2023/01/20 05:36:52;;;;;;;1999.90;999.90;;;1.10;99.90;;;;;;5053630;28;20448;-68
2023/01/20 05:39:19;;;;;;;1999.90;999.90;;;1.10;99.90;;;;;;5053108;28;20509;-67
2023/01/20 05:41:45;;;;;;;1999.90;999.90;;;1.10;99.90;;;;;;5042088;28;20452;-66
2023/01/20 05:44:12;;;;;;;1999.90;999.90;;;1.10;99.90;;;;;;5033143;28;20480;-67
2023/01/20 05:46:41;;;;;;;1999.90;999.90;;;1.20;99.90;;;;;;5031621;28;20449;-65
2023/01/20 05:49:09;;;;;;;1999.90;999.90;;;1.20;99.90;;;;;;5033325;28;20441;-66
2023/01/20 05:51:36;;;;;;;1999.90;999.90;;;1.10;99.90;;;;;;5041593;28;20459;-67
2023/01/20 05:54:03;;;;;;;1999.90;999.90;;;1.10;99.90;;;;;;5050690;28;20468;-65
2023/01/20 05:56:30;;;;;;;1999.90;999.90;;;1.00;99.90;;;;;;5052091;28;20452;-66
2023/01/20 05:58:57;;;;;;;1999.90;999.90;;;0.90;99.90;;;;;;5050608;28;20823;-65
2023/01/20 06:01:23;;;;;;;1999.90;999.90;;;0.80;99.90;;;;;;5054933;28;20457;-67
2023/01/20 06:03:51;;;;;;;1999.90;999.90;;;0.70;99.90;;;;;;5055109;28;20491;-66
2023/01/20 06:06:18;;;;;;;1999.90;999.90;;;0.60;99.90;;;;;;5051153;28;20460;-66
2023/01/20 06:08:45;;;;;;;1999.90;999.90;;;0.70;99.90;;;;;;5051612;28;20870;-68
2023/01/20 06:11:13;;;;;;;1999.90;999.90;;;0.70;99.90;;;;;;5051453;28;20448;-66
2023/01/20 06:13:40;;;;;;;1999.90;999.90;;;0.70;99.90;;;;;;5050038;28;20468;-66
2023/01/20 06:16:07;;;;;;;1999.90;999.90;;;0.80;99.90;;;;;;5047258;28;20448;-68
2023/01/20 06:18:34;;;;;;;1999.90;999.90;;;0.70;99.90;;;;;;5036736;28;20441;-67
2023/01/20 06:21:03;;;;;;;1999.90;999.90;;;0.80;99.90;;;;;;5036372;28;21152;-67
2023/01/20 06:23:29;;;;;;;1999.90;999.90;;;0.70;99.90;;;;;;5053681;28;20503;-66
2023/01/20 06:26:00;;;;;;;1999.90;999.90;;;0.60;99.90;;;;;;5052808;28;20482;-66
2023/01/20 06:28:27;;;;;;;1999.90;999.90;;;0.60;99.90;;;;;;5054033;28;20440;-66
2023/01/20 06:30:59;;;;;;;1999.90;999.90;;;0.50;99.90;;;;;;5052665;28;20671;-67
2023/01/20 06:33:26;;;;;;;1999.90;999.90;;;0.50;99.90;;;;;;5053947;28;20480;-67
2023/01/20 06:35:54;;;;;;;1999.90;999.90;;;0.50;99.90;;;;;;5054101;28;20444;-66
2023/01/20 06:38:22;;;;;;;1999.90;999.90;;;0.50;99.90;;;;;;5054314;28;20456;-67
2023/01/20 06:40:49;;;;;;;1999.90;999.90;;;0.50;99.90;;;;;;5047814;28;20468;-66
2023/01/20 06:43:16;;;;;;;1999.90;999.90;;;0.40;99.90;;;;;;5034427;28;20472;-67
2023/01/20 06:45:43;;;;;;;1999.90;999.90;;;0.40;99.90;;;;;;5033984;28;20484;-68
2023/01/20 06:48:10;;;;;;;1999.90;999.90;;;0.40;99.90;;;;;;5040733;28;20551;-67
2023/01/20 06:50:36;;;;;;;1999.90;999.90;;;0.50;99.90;;;;;;5035272;28;20468;-68
2023/01/20 06:53:03;;;;;;;1999.90;999.90;;;0.50;99.90;;;;;;5032303;28;20453;-67
2023/01/20 06:55:31;;;;;;;1999.90;999.90;;;0.50;99.90;;;;;;5033716;28;20468;-67
2023/01/20 06:57:58;;;;;;;1999.90;999.90;;;0.50;99.90;;;;;;5032935;28;20449;-67
2023/01/20 07:00:25;;;;;;;1999.90;999.90;;;0.60;99.90;;;;;;5033203;28;20456;-67
2023/01/20 07:02:52;;;;;;;1999.90;999.90;;;0.60;99.90;;;;;;5032820;28;20456;-68
2023/01/20 07:05:18;;;;;;;1999.90;999.90;;;0.70;99.90;;;;;;5033469;28;20487;-68
2023/01/20 07:07:46;;;;;;;1999.90;999.90;;;0.70;99.90;;;;;;5033447;28;20441;-68
2023/01/20 07:10:13;;;;;;;1999.90;999.90;;;0.70;99.90;;;;;;5032633;28;20456;-65
2023/01/20 07:12:41;;;;;;;1999.90;999.90;;;0.60;99.90;;;;;;5032519;28;20456;-66
2023/01/20 07:15:08;;;;;;;1999.90;999.90;;;0.60;99.90;;;;;;5032761;28;20461;-67
2023/01/20 07:17:35;;;;;;;1999.90;999.90;;;0.70;99.90;;;;;;5033412;28;20449;-66
2023/01/20 07:20:02;;;;;;;1999.90;999.90;;;0.60;99.90;;;;;;5032951;28;20457;-66
2023/01/20 07:22:29;;;;;;;1999.90;999.90;;;0.60;99.90;;;;;;5033289;28;21085;-66
2023/01/20 07:24:56;;;;;;;1999.90;999.90;;;0.60;99.90;;;;;;5032646;28;20488;-65
2023/01/20 07:27:23;;;;;;;1999.90;999.90;;;0.50;99.90;;;;;;5033123;28;20467;-65
2023/01/20 07:29:51;;;;;;;1999.90;999.90;;;0.40;99.90;;;;;;5032947;28;20470;-67
2023/01/20 07:32:19;;;;;;;1999.90;999.90;;;0.40;99.90;;;;;;5032793;28;20552;-67
2023/01/20 07:34:45;;;;;;;1999.90;999.90;;;0.50;99.90;;;;;;5032177;28;20567;-66
2023/01/20 07:37:12;;;;;;;1999.90;999.90;;;0.60;99.90;;;;;;5033178;28;20445;-64
2023/01/20 07:39:39;;;;;;;1999.90;999.90;;;0.70;99.90;;;;;;5032701;28;20457;-69
2023/01/20 07:42:06;;;;;;;1999.90;999.90;;;0.80;99.90;;;;;;5032676;28;20464;-66
2023/01/20 07:44:33;;;;;;;1999.90;999.90;;;0.90;99.90;;;;;;5032804;28;20485;-65
2023/01/20 07:47:01;;;;;;;1999.90;999.90;;;1.00;99.90;;;;;;5033448;28;20459;-66
2023/01/20 07:49:28;;;;;;;1999.90;999.90;;;1.10;99.90;;;;;;5033349;28;20502;-67
2023/01/20 07:51:55;;;;;;;1999.90;999.90;;;1.20;99.90;;;;;;5033008;28;20453;-67
2023/01/20 07:54:21;;;;;;;1999.90;999.90;;;1.20;99.90;;;;;;5032856;28;20469;-69
2023/01/20 07:56:48;;;;;;;1999.90;999.90;;;1.20;99.90;;;;;;5032913;28;20459;-67
2023/01/20 07:59:17;;;;;;;1999.90;999.90;;;1.30;99.90;;;;;;5033094;28;20456;-66
2023/01/20 08:01:56;;;;;;;1999.90;999.90;;;1.40;99.90;;;;;;5033187;28;20453;-66
2023/01/20 08:04:33;;;;;;;1999.90;999.90;;;1.40;99.90;;;;;;5032641;28;20468;-65
2023/01/20 08:07:00;;;;;;;1999.90;999.90;;;1.50;99.90;;;;;;5032544;28;21038;-66
2023/01/20 08:09:27;;;;;;;1999.90;999.90;;;1.60;99.90;;;;;;5032630;28;20456;-67
2023/01/20 08:11:53;;;;;;;1999.90;999.90;;;1.70;99.90;;;;;;5033029;28;20449;-68
2023/01/20 08:14:26;;;;;;;1999.90;999.90;;;1.80;99.90;;;;;;5032084;28;20860;-66
2023/01/20 08:16:53;;;;;;;1999.90;999.90;;;1.80;99.90;;;;;;5032408;28;20441;-69
2023/01/20 08:19:29;;;;;;;1999.90;999.90;;;1.80;99.90;;;;;;5032615;28;20455;-68
2023/01/20 08:21:56;;;;;;;1999.90;999.90;;;1.80;99.90;;;;;;5032179;28;20453;-66
2023/01/20 08:24:22;;;;;;;1999.90;999.90;;;1.90;99.90;;;;;;5032491;28;20468;-68
2023/01/20 08:26:52;;;;;;;1999.90;999.90;;;1.90;99.90;;;;;;5032217;28;20527;-68
2023/01/20 08:29:19;;;;;;;1999.90;999.90;;;2.00;99.90;;;;;;5033260;28;20456;-67
2023/01/20 08:31:59;;;;;;;1999.90;999.90;;;2.00;99.90;;;;;;5032646;28;20460;-66
2023/01/20 08:34:28;;;;;;;1999.90;999.90;;;1.90;99.90;;;;;;5031554;28;21180;-66
2023/01/20 08:36:56;;;;;;;1999.90;999.90;;;2.00;99.90;;;;;;5032223;28;20451;-66
2023/01/20 08:39:29;;;;;;;1999.90;999.90;;;2.10;99.90;;;;;;5031613;28;20865;-66
2023/01/20 08:41:55;;;;;;;1999.90;999.90;;;2.30;99.90;;;;;;5032188;28;20459;-67
2023/01/20 08:44:22;;;;;;;1999.90;999.90;;;2.40;99.90;;;;;;5031302;28;20472;-67
2023/01/20 08:46:58;;;;;;;1999.90;999.90;;;2.50;99.90;;;;;;5031432;28;20824;-67
2023/01/20 08:49:27;;;;;;;1999.90;999.90;;;2.60;99.90;;;;;;5031118;28;20455;-66
2023/01/20 08:51:55;;;;;;;1999.90;999.90;;;2.60;99.90;;;;;;5031083;28;20459;-67
2023/01/20 08:54:21;;;;;;;1999.90;999.90;;;2.50;99.90;;;;;;5030563;28;20481;-67
2023/01/20 08:56:50;;;;;;;1999.90;999.90;;;2.50;99.90;;;;;;5030673;28;20512;-68
2023/01/20 08:59:16;;;;;;;1999.90;999.90;;;2.50;99.90;;;;;;5030816;28;20453;-67
2023/01/20 09:01:43;;;;;;;1999.90;999.90;;;2.50;99.90;;;;;;5030653;28;20965;-66
2023/01/20 09:04:10;;;;;;;1999.90;999.90;;;2.60;99.90;;;;;;5030258;28;20464;-67
2023/01/20 09:06:40;;;;;;;1999.90;999.90;;;2.60;99.90;;;;;;5030689;28;20528;-67
2023/01/20 09:09:07;;;;;;;1999.90;999.90;;;2.60;99.90;;;;;;5030855;28;20457;-66
2023/01/20 09:11:34;;;;;;;1999.90;999.90;;;2.50;99.90;;;;;;5031087;28;20460;-67
2023/01/20 09:14:01;;;;;;;1999.90;999.90;;;2.40;99.90;;;;;;5030697;28;20551;-66
2023/01/20 09:16:28;;;;;;;1999.90;999.90;;;2.40;99.90;;;;;;5031037;28;20978;-67
2023/01/20 09:18:55;;;;;;;1999.90;999.90;;;2.30;99.90;;;;;;5030685;28;20453;-66
2023/01/20 09:21:22;;;;;;;1999.90;999.90;;;2.30;99.90;;;;;;5031041;28;20449;-66
2023/01/20 09:23:51;;;;;;;1999.90;999.90;;;2.40;99.90;;;;;;5030657;28;20472;-68
2023/01/20 09:26:17;;;;;;;1999.90;999.90;;;2.40;99.90;;;;;;5030507;28;20493;-67
2023/01/20 09:28:45;;;;;;;1999.90;999.90;;;2.40;99.90;;;;;;5030633;28;20445;-67
2023/01/20 09:31:13;;;;;;;1999.90;999.90;;;2.50;99.90;;;;;;5030356;28;20457;-67
2023/01/20 09:33:40;;;;;;;1999.90;999.90;;;2.60;99.90;;;;;;5030935;28;20546;-67
2023/01/20 09:36:09;;;;;;;1999.90;999.90;;;2.90;99.90;;;;;;5034146;28;20465;-68
2023/01/20 09:44:42;;;;;;;1999.90;999.90;;;3.30;99.90;;;;;;5033238;28;20583;-66
2023/01/20 09:47:28;;;;;;;1999.90;999.90;;;3.60;99.90;;;;;;5032763;28;20460;-67
2023/01/20 09:53:14;;;;;;;1999.90;999.90;;;4.10;99.90;;;;;;5033255;28;20562;-66
2023/01/20 09:55:46;;;;;;;1999.90;999.90;;;4.40;99.90;;;;;;5033344;28;20451;-68
2023/01/20 09:58:22;;;;;;;1999.90;999.90;;;4.60;99.90;;;;;;5033436;28;20452;-66
2023/01/20 10:00:55;;;;;;;1999.90;999.90;;;4.60;99.90;;;;;;5033326;28;20444;-67
2023/01/20 10:03:28;;;;;;;1999.90;999.90;;;4.60;99.90;;;;;;5032770;28;20468;-67
2023/01/20 10:05:58;;;;;;;1999.90;999.90;;;4.60;99.90;;;;;;5032998;28;20848;-67
2023/01/20 10:08:32;;;;;;;1999.90;999.90;;;4.60;99.90;;;;;;5033699;28;20448;-67
2023/01/20 10:11:04;;;;;;;1999.90;999.90;;;4.80;99.90;;;;;;5034021;28;20445;-68
2023/01/20 10:13:39;;;;;;;1999.90;999.90;;;5.20;99.90;;;;;;5033629;28;20472;-67
2023/01/20 10:16:11;;;;;;;1999.90;999.90;;;5.30;99.90;;;;;;5033986;28;20456;-68
2023/01/20 10:18:43;;;;;;;1999.90;999.90;;;5.40;99.90;;;;;;5034691;28;20441;-68
2023/01/20 10:21:14;;;;;;;1999.90;999.90;;;5.30;99.90;;;;;;5034079;28;20448;-68
2023/01/20 10:23:44;;;;;;;1999.90;999.90;;;5.10;99.90;;;;;;5034338;28;20473;-67
2023/01/20 10:26:16;;;;;;;1999.90;999.90;;;4.90;99.90;;;;;;5035189;28;20485;-67
2023/01/20 10:28:51;;;;;;;1999.90;999.90;;;5.10;99.90;;;;;;5034345;28;20452;-67
2023/01/20 10:31:25;;;;;;;1999.90;999.90;;;5.70;99.90;;;;;;5034469;28;20458;-67
2023/01/20 10:33:55;;;;;;;1999.90;999.90;;;6.10;99.90;;;;;;5033294;28;21002;-67
2023/01/20 10:36:27;;;;;;;1999.90;999.90;;;6.00;99.90;;;;;;5034084;28;20950;-66
2023/01/20 10:38:58;;;;;;;1999.90;999.90;;;5.80;99.90;;;;;;5033885;28;20452;-67
2023/01/20 10:41:34;;;;;;;1999.90;999.90;;;6.00;99.90;;;;;;5033550;28;21236;-66
2023/01/20 10:44:10;;;;;;;1999.90;999.90;;;6.40;99.90;;;;;;5032946;28;20472;-67
2023/01/20 10:46:51;;;;;;;1999.90;999.90;;;6.60;99.90;;;;;;5031941;28;20484;-68
2023/01/20 10:49:39;;;;;;;1999.90;999.90;;;6.40;99.90;;;;;;5031566;28;20944;-66
2023/01/20 10:52:18;;;;;;;1999.90;999.90;;;5.70;99.90;;;;;;5031827;28;20464;-66
2023/01/20 10:54:52;;;;;;;1999.90;999.90;;;5.40;99.90;;;;;;5031177;28;20472;-68
2023/01/20 10:57:19;;;;;;;1999.90;999.90;;;5.50;99.90;;;;;;5031609;28;20452;-67
2023/01/20 10:59:50;;;;;;;1999.90;999.90;;;5.90;99.90;;;;;;5031239;28;20453;-67
2023/01/20 11:02:20;;;;;;;1999.90;999.90;;;6.40;99.90;;;;;;5031283;28;20448;-67
2023/01/20 11:04:55;;;;;;;1999.90;999.90;;;6.80;99.90;;;;;;5030756;28;20464;-68
2023/01/20 11:07:21;;;;;;;1999.90;999.90;;;6.80;99.90;;;;;;5031303;28;20488;-67
2023/01/20 11:09:48;;;;;;;1999.90;999.90;;;6.50;99.90;;;;;;5031137;28;20441;-67
2023/01/20 11:12:20;;;;;;;1999.90;999.90;;;6.20;99.90;;;;;;5031000;28;20460;-67
2023/01/20 11:14:48;;;;;;;1999.90;999.90;;;5.80;99.90;;;;;;5030799;28;20477;-67
2023/01/20 11:17:17;;;;;;;1999.90;999.90;;;5.50;99.90;;;;;;5031360;28;20445;-66
2023/01/20 11:19:50;;;;;;;1999.90;999.90;;;5.20;99.90;;;;;;5031552;28;20452;-66
2023/01/20 11:22:22;;;;;;;1999.90;999.90;;;4.90;99.90;;;;;;5031750;28;20513;-67
2023/01/20 11:24:54;;;;;;;1999.90;999.90;;;4.80;99.90;;;;;;5031469;28;20473;-67
2023/01/20 11:27:24;;;;;;;1999.90;999.90;;;4.60;99.90;;;;;;5031976;28;20836;-67
2023/01/20 11:29:57;;;;;;;1999.90;999.90;;;4.50;99.90;;;;;;5031604;28;20921;-66
2023/01/20 11:32:32;;;;;;;1999.90;999.90;;;4.40;99.90;;;;;;5031783;28;20456;-66
2023/01/20 11:35:00;;;;;;;1999.90;999.90;;;4.20;99.90;;;;;;5031054;28;20472;-67
2023/01/20 11:37:35;;;;;;;1999.90;999.90;;;3.90;99.90;;;;;;5031073;28;20449;-67
2023/01/20 11:40:16;;;;;;;1999.90;999.90;;;3.70;99.90;;;;;;5031738;28;20453;-67
2023/01/20 11:42:45;;;;;;;1999.90;999.90;;;3.60;99.90;;;;;;5033349;28;20896;-67
2023/01/20 11:45:29;;;;;;;1999.90;999.90;;;3.50;99.90;;;;;;5033353;28;21084;-67
2023/01/20 11:48:03;;;;;;;1999.90;999.90;;;3.40;99.90;;;;;;5033206;28;20451;-68
2023/01/20 11:50:36;;;;;;;1999.90;999.90;;;3.40;99.90;;;;;;5032999;28;20467;-67
2023/01/20 11:53:20;;;;;;;1999.90;999.90;;;3.40;99.90;;;;;;5032420;28;20972;-67
2023/01/20 11:55:50;;;;;;;1999.90;999.90;;;3.50;99.90;;;;;;5032203;28;20501;-67
2023/01/20 11:58:19;;;;;;;1999.90;999.90;;;3.60;99.90;;;;;;5033083;28;20449;-66
2023/01/20 12:00:49;;;;;;;1999.90;999.90;;;3.70;99.90;;;;;;5033141;28;20457;-67
2023/01/20 12:03:40;;;;;;;1999.90;999.90;;;3.80;99.90;;;;;;5032892;28;20487;-67
2023/01/20 12:06:15;;;;;;;1999.90;999.90;;;3.80;99.90;;;;;;5020771;28;20880;-67
2023/01/20 12:08:49;;;;;;;1999.90;999.90;;;3.90;99.90;;;;;;5030984;28;20448;-66
2023/01/20 12:11:20;;;;;;;1999.90;999.90;;;3.90;99.90;;;;;;5031510;28;20452;-66
2023/01/20 12:16:50;;;;;;;1999.90;999.90;;;3.90;99.90;;;;;;5031525;28;20420;-66
2023/01/20 12:19:20;;;;;;;1999.90;999.90;;;3.70;99.90;;;;;;5031548;28;20453;-67
2023/01/20 12:21:52;;;;;;;1999.90;999.90;;;3.70;99.90;;;;;;5030923;28;20946;-66
2023/01/20 12:24:22;;;;;;;1999.90;999.90;;;3.70;99.90;;;;;;5031472;28;20987;-66
2023/01/20 12:26:50;;;;;;;1999.90;999.90;;;3.70;99.90;;;;;;5030931;28;20487;-65
2023/01/20 12:29:21;;;;;;;1999.90;999.90;;;3.60;99.90;;;;;;5030906;28;20456;-66
2023/01/20 12:31:49;;;;;;;1999.90;999.90;;;3.50;99.90;;;;;;5031766;28;20532;-67